CheckWX is a tool to help pilots better visualize weather data.  It is not intended as a substitute for an official pre-flight weather briefing.

21:50:26 UTC

KOFF METAR
Offutt AFB Airport
Omaha, Nebraska, USA
Current

34 mins ago

KOFF 232116Z 32016G23KT 9SM +RA OVC004 01/01 A2956 RMK AO2A CIG 002V004 SLP024 $
Observed
Feb-23 @ 21:16 UTC
Wind
  • 320° at 16 KTS
  • Gusting to 23 KTS
Visibility
9 SM
Flight Rules
LIFR
Conditions
Heavy Rain
Cloud Levels
  • Overcast at 400' AGL
Temperature
C / 34°F
Dewpoint
C / 34°F
Humidity
100%
Altimeter
29.56" Hg
Pressure
1002.4 hPa
Previous

54 mins ago

KOFF 232056Z AUTO 33012G20KT 5SM RA BR OVC002 01/01 A2956 RMK AO2 RAE14UPB14E18RAB18 SLP024 P0007 60011 T00060006 56039 $
Observed
Feb-23 @ 20:56 UTC
Wind
  • 330° at 12 KTS
  • Gusting to 20 KTS
Visibility
5 SM
Flight Rules
LIFR
Conditions
Rain, Mist
Cloud Levels
  • Overcast at 200' AGL
Temperature
C / 34°F
Dewpoint
C / 34°F
Humidity
100%
Altimeter
29.56" Hg
Pressure
1002.4 hPa
Current Rain
0.07"
Previous

1 hour ago

KOFF 232039Z 32013KT 3SM +RAPL OVC003 01/01 A2956 RMK PRESFR SLP023 $
Observed
Feb-23 @ 20:39 UTC
Wind
  • 320° at 13 KTS
Visibility
3 SM
Flight Rules
LIFR
Conditions
Heavy Rain
Cloud Levels
  • Overcast at 300' AGL
Temperature
C / 34°F
Dewpoint
C / 34°F
Humidity
100%
Altimeter
29.56" Hg
Pressure
1002.3 hPa